createdAt,value
2023-03-16T00:01:27.952Z,2.16
2023-03-16T00:02:59.771Z,2.22
2023-03-16T00:04:31.651Z,2.09
2023-03-16T00:06:04.977Z,1.99
2023-03-16T00:07:36.930Z,1.76
2023-03-16T00:09:09.784Z,1.81
2023-03-16T00:10:46.651Z,1.83
2023-03-16T00:12:18.863Z,1.92
2023-03-16T00:13:50.524Z,1.86
2023-03-16T00:15:22.238Z,2.01
2023-03-16T00:16:53.875Z,2.01
2023-03-16T00:18:29.355Z,2.00
2023-03-16T00:20:06.566Z,1.93
2023-03-16T00:21:39.800Z,2.01
2023-03-16T00:23:11.991Z,2.12
2023-03-16T00:24:43.627Z,1.99
2023-03-16T00:26:15.321Z,1.91
2023-03-16T00:27:47.360Z,1.97
2023-03-16T00:29:19.179Z,1.94
2023-03-16T00:30:50.907Z,2.01
2023-03-16T00:32:23.562Z,1.85
2023-03-16T00:33:55.174Z,1.90
2023-03-16T00:35:26.829Z,1.91
2023-03-16T00:36:59.855Z,1.88
2023-03-16T00:38:32.485Z,1.91
2023-03-16T00:40:07.764Z,1.94
2023-03-16T00:41:39.505Z,1.90
2023-03-16T00:43:11.151Z,1.88
2023-03-16T00:44:42.867Z,1.91
2023-03-16T00:46:16.330Z,1.80
2023-03-16T00:47:48.043Z,1.80
2023-03-16T00:49:19.658Z,1.70
2023-03-16T00:50:54.353Z,1.75
2023-03-16T00:52:27.825Z,1.75
2023-03-16T00:53:59.811Z,1.84
2023-03-16T00:55:32.184Z,1.87
2023-03-16T00:57:04.075Z,1.40
2023-03-16T00:58:36.577Z,1.00
2023-03-16T01:00:13.104Z,1.10
2023-03-16T01:01:46.771Z,1.19
2023-03-16T01:03:18.532Z,1.54
2023-03-16T01:04:50.448Z,1.45
2023-03-16T01:06:22.204Z,1.52
2023-03-16T01:07:55.207Z,1.41
2023-03-16T01:09:26.855Z,1.57
2023-03-16T01:11:03.555Z,1.52
2023-03-16T01:12:35.476Z,1.70
2023-03-16T01:14:07.141Z,1.59
2023-03-16T01:15:39.281Z,1.39
2023-03-16T01:17:11.126Z,1.42
2023-03-16T01:18:42.773Z,1.29
2023-03-16T01:20:16.721Z,1.34
2023-03-16T01:21:48.351Z,1.02
2023-03-16T01:23:21.419Z,1.15
2023-03-16T01:24:53.059Z,1.30
2023-03-16T01:26:25.217Z,1.13
2023-03-16T01:27:56.903Z,1.08
2023-03-16T01:29:28.677Z,1.22
2023-03-16T01:31:03.045Z,0.97
2023-03-16T01:32:34.790Z,1.12
2023-03-16T01:34:06.519Z,0.84
2023-03-16T01:35:38.176Z,0.87
2023-03-16T01:37:09.807Z,0.93
2023-03-16T01:38:42.864Z,1.00
2023-03-16T01:40:14.666Z,0.88
2023-03-16T01:41:46.386Z,1.02
2023-03-16T01:43:18.320Z,0.89
2023-03-16T01:44:51.310Z,0.88
2023-03-16T01:46:24.601Z,0.96
2023-03-16T01:47:58.720Z,1.12
2023-03-16T01:49:32.763Z,0.98
2023-03-16T01:51:06.261Z,0.83
2023-03-16T01:52:38.137Z,0.96
2023-03-16T01:54:14.634Z,1.03
2023-03-16T01:55:46.326Z,0.96
2023-03-16T01:57:18.912Z,1.08
2023-03-16T01:58:51.170Z,1.15
2023-03-16T02:00:31.433Z,1.21
2023-03-16T02:02:03.218Z,1.20
2023-03-16T02:03:35.130Z,1.07
2023-03-16T02:05:09.707Z,1.14
2023-03-16T02:06:41.347Z,1.33
2023-03-16T02:08:13.021Z,1.27
2023-03-16T02:09:47.155Z,1.33
2023-03-16T02:11:18.806Z,1.32
2023-03-16T02:12:50.715Z,1.18
2023-03-16T02:14:22.518Z,1.27
2023-03-16T02:15:54.358Z,1.15
2023-03-16T02:17:27.814Z,1.14
2023-03-16T02:18:59.423Z,1.14
2023-03-16T02:20:35.350Z,1.12
2023-03-16T02:22:07.256Z,1.17
2023-03-16T02:23:38.887Z,1.13
2023-03-16T02:25:12.115Z,1.26
2023-03-16T02:26:45.760Z,1.35
2023-03-16T02:28:19.978Z,1.30
2023-03-16T02:29:56.203Z,1.27
2023-03-16T02:31:27.857Z,1.27
2023-03-16T02:32:59.561Z,1.23
2023-03-16T02:34:31.230Z,1.05
2023-03-16T02:36:03.617Z,0.91
2023-03-16T02:37:35.283Z,0.97
2023-03-16T02:39:06.938Z,1.03
2023-03-16T02:40:38.847Z,0.96
2023-03-16T02:42:12.036Z,0.87
2023-03-16T02:43:45.764Z,0.93
2023-03-16T02:45:18.713Z,1.04
2023-03-16T02:46:50.361Z,0.99
2023-03-16T02:48:23.528Z,0.96
2023-03-16T02:49:55.559Z,1.00
2023-03-16T02:51:27.168Z,1.01
2023-03-16T02:52:58.730Z,1.01
2023-03-16T02:54:30.492Z,0.98
2023-03-16T02:56:04.727Z,0.86
2023-03-16T02:57:36.434Z,0.89
2023-03-16T02:59:08.034Z,0.92
2023-03-16T03:00:41.002Z,0.92
2023-03-16T03:02:12.610Z,0.82
2023-03-16T03:03:44.204Z,0.94
2023-03-16T03:05:15.884Z,0.92
2023-03-16T03:06:47.434Z,0.93
2023-03-16T03:08:22.761Z,0.90
2023-03-16T03:09:54.374Z,0.89
2023-03-16T03:11:25.992Z,0.83
2023-03-16T03:12:58.022Z,0.76
2023-03-16T03:14:29.695Z,0.78
2023-03-16T03:16:02.894Z,0.84
2023-03-16T03:17:34.778Z,0.85
2023-03-16T03:19:06.338Z,0.76
2023-03-16T03:20:38.127Z,0.73
2023-03-16T03:22:11.080Z,0.84
2023-03-16T03:23:46.444Z,0.84
2023-03-16T03:25:18.635Z,0.85
2023-03-16T03:26:50.350Z,0.85
2023-03-16T03:28:22.226Z,0.82
2023-03-16T03:29:53.848Z,0.82
2023-03-16T03:31:26.813Z,0.86
2023-03-16T03:32:58.478Z,0.86
2023-03-16T03:34:30.212Z,0.65
2023-03-16T03:36:02.317Z,0.78
2023-03-16T03:37:34.213Z,0.81
2023-03-16T03:39:05.813Z,0.80
2023-03-16T03:40:37.632Z,0.80
2023-03-16T03:42:09.583Z,0.74
2023-03-16T03:43:41.483Z,0.73
2023-03-16T03:45:13.279Z,0.58
2023-03-16T03:46:46.544Z,0.71
2023-03-16T03:48:18.295Z,0.68
2023-03-16T03:49:49.950Z,0.67
2023-03-16T03:51:21.780Z,0.67
2023-03-16T03:52:53.597Z,0.69
2023-03-16T03:54:25.341Z,0.59
2023-03-16T03:55:56.999Z,0.67
2023-03-16T03:57:28.737Z,0.67
2023-03-16T03:59:00.417Z,0.66
2023-03-16T04:00:32.049Z,0.66
2023-03-16T04:02:05.391Z,0.66
2023-03-16T04:03:37.102Z,0.61
2023-03-16T04:05:09.392Z,0.62
2023-03-16T04:06:41.671Z,0.59
2023-03-16T04:08:13.425Z,0.45
2023-03-16T04:09:45.057Z,0.53
2023-03-16T04:11:16.757Z,0.57
2023-03-16T04:12:48.311Z,0.54
2023-03-16T04:14:19.872Z,0.35
2023-03-16T04:15:56.490Z,0.54
2023-03-16T04:17:29.554Z,0.61
2023-03-16T04:19:01.693Z,0.61
2023-03-16T04:20:33.389Z,0.58
2023-03-16T04:22:05.200Z,0.53
2023-03-16T04:23:36.804Z,0.53
2023-03-16T04:25:11.020Z,0.33
2023-03-16T04:26:45.121Z,0.48
2023-03-16T04:28:17.855Z,0.58
2023-03-16T04:29:49.506Z,0.58
2023-03-16T04:31:21.366Z,0.59
2023-03-16T04:32:54.433Z,0.55
2023-03-16T04:34:26.110Z,0.44
2023-03-16T04:35:57.807Z,0.38
2023-03-16T04:37:29.552Z,0.31
2023-03-16T04:39:02.143Z,0.31
2023-03-16T04:40:33.770Z,0.24
2023-03-16T04:42:06.179Z,0.28
2023-03-16T04:43:37.818Z,0.17
2023-03-16T04:45:10.385Z,0.24
2023-03-16T04:46:41.974Z,0.15
2023-03-16T04:48:14.966Z,0.13
2023-03-16T04:49:46.674Z,0.27
2023-03-16T04:51:18.285Z,0.28
2023-03-16T04:52:49.888Z,0.34
2023-03-16T04:54:21.611Z,0.25
2023-03-16T04:55:53.237Z,0.27
2023-03-16T04:57:25.293Z,0.37
2023-03-16T04:58:57.163Z,0.38
2023-03-16T05:00:29.109Z,0.35
2023-03-16T05:02:01.025Z,0.33
2023-03-16T05:03:34.782Z,0.25
2023-03-16T05:05:06.952Z,0.26
2023-03-16T05:06:38.563Z,0.23
2023-03-16T05:08:10.825Z,0.14
2023-03-16T05:09:42.563Z,-0.04
2023-03-16T05:11:14.282Z,0.11
2023-03-16T05:12:46.404Z,0.01
2023-03-16T05:14:18.049Z,-0.16
2023-03-16T05:15:49.727Z,-0.14
2023-03-16T05:17:22.230Z,-0.03
2023-03-16T05:18:57.953Z,0.01
2023-03-16T05:20:30.304Z,-0.01
2023-03-16T05:22:02.114Z,-0.09
2023-03-16T05:23:33.923Z,-0.22
2023-03-16T05:25:06.559Z,0.00
2023-03-16T05:26:38.151Z,-0.16
2023-03-16T05:28:09.740Z,-0.08
2023-03-16T05:29:45.990Z,0.01
2023-03-16T05:31:17.641Z,0.13
2023-03-16T05:32:49.267Z,0.04
2023-03-16T05:34:22.205Z,0.08
2023-03-16T05:35:53.888Z,-0.01
2023-03-16T05:38:58.285Z,0.06
2023-03-16T05:40:30.176Z,0.07
2023-03-16T05:42:01.958Z,0.08
2023-03-16T05:43:34.390Z,0.12
2023-03-16T05:45:07.081Z,0.14
2023-03-16T05:46:38.845Z,0.13
2023-03-16T05:48:10.508Z,0.12
2023-03-16T05:49:43.542Z,0.01
2023-03-16T05:51:15.144Z,0.07
2023-03-16T05:52:46.890Z,0.00
2023-03-16T05:54:18.481Z,0.04
2023-03-16T05:55:53.540Z,0.08
2023-03-16T05:57:27.069Z,0.03
2023-03-16T05:59:00.526Z,-0.06
2023-03-16T06:00:32.166Z,0.01
2023-03-16T06:02:03.999Z,0.13
2023-03-16T06:03:35.619Z,0.11
2023-03-16T06:05:09.294Z,0.14
2023-03-16T06:06:40.956Z,0.17
2023-03-16T06:08:12.740Z,0.09
2023-03-16T06:09:44.387Z,0.17
2023-03-16T06:11:16.223Z,0.21
2023-03-16T06:12:47.910Z,0.17
2023-03-16T06:14:19.563Z,0.13
2023-03-16T06:15:51.288Z,0.13
2023-03-16T06:17:22.902Z,0.19
2023-03-16T06:18:59.144Z,0.24
2023-03-16T06:20:32.697Z,0.25
2023-03-16T06:22:04.439Z,0.23
2023-03-16T06:23:36.053Z,0.27
2023-03-16T06:25:08.454Z,0.27
2023-03-16T06:26:40.105Z,0.21
2023-03-16T06:28:11.798Z,0.22
2023-03-16T06:29:43.435Z,0.20
2023-03-16T06:31:18.522Z,0.23
2023-03-16T06:32:50.172Z,0.21
2023-03-16T06:34:22.596Z,0.24
2023-03-16T06:35:55.675Z,0.34
2023-03-16T06:37:27.305Z,0.23
2023-03-16T06:38:58.876Z,0.27
2023-03-16T06:40:32.498Z,0.27
2023-03-16T06:42:04.925Z,0.24
2023-03-16T06:43:36.788Z,0.24
2023-03-16T06:45:10.118Z,0.21
2023-03-16T06:46:41.791Z,0.26
2023-03-16T06:48:13.546Z,0.28
2023-03-16T06:49:46.913Z,0.24
2023-03-16T06:51:19.958Z,0.23
2023-03-16T06:52:51.692Z,0.28
2023-03-16T06:54:23.269Z,0.32
2023-03-16T06:55:54.891Z,0.44
2023-03-16T06:57:26.599Z,0.36
2023-03-16T06:58:58.186Z,0.47
2023-03-16T07:00:30.861Z,0.59
2023-03-16T07:02:02.548Z,0.63
2023-03-16T07:03:34.319Z,0.59
2023-03-16T07:05:06.801Z,0.60
2023-03-16T07:06:39.860Z,0.64
2023-03-16T07:08:12.194Z,0.65
2023-03-16T07:09:43.939Z,0.65
2023-03-16T07:11:15.647Z,0.72
2023-03-16T07:12:47.281Z,0.77
2023-03-16T07:14:19.957Z,0.94
2023-03-16T07:15:57.658Z,1.04
2023-03-16T07:17:29.262Z,1.00
2023-03-16T07:19:01.755Z,0.94
2023-03-16T07:20:34.285Z,1.00
2023-03-16T07:22:07.304Z,1.16
2023-03-16T07:23:38.895Z,1.09
2023-03-16T07:25:11.553Z,1.07
2023-03-16T07:26:43.342Z,1.20
2023-03-16T07:28:15.029Z,1.34
2023-03-16T07:29:46.638Z,1.51
2023-03-16T07:31:18.344Z,1.44
2023-03-16T07:32:50.083Z,1.41
2023-03-16T07:34:21.826Z,1.43
2023-03-16T07:35:53.622Z,1.54
2023-03-16T07:37:26.813Z,1.62
2023-03-16T07:38:58.536Z,1.61
2023-03-16T07:40:30.649Z,1.60
2023-03-16T07:42:02.718Z,1.52
2023-03-16T07:43:34.518Z,1.71
2023-03-16T07:45:07.491Z,1.66
2023-03-16T07:46:39.102Z,1.68
2023-03-16T07:48:10.706Z,1.60
2023-03-16T07:49:43.852Z,1.77
2023-03-16T07:51:15.725Z,1.76
2023-03-16T07:52:48.730Z,1.80
2023-03-16T07:54:20.413Z,1.83
2023-03-16T07:55:52.014Z,1.86
2023-03-16T07:57:23.684Z,1.94
2023-03-16T07:58:55.333Z,2.03
2023-03-16T08:00:27.516Z,1.97
2023-03-16T08:01:59.254Z,1.98
2023-03-16T08:03:32.068Z,2.08
2023-03-16T08:05:04.171Z,2.27
2023-03-16T08:06:35.783Z,2.24
2023-03-16T08:08:09.724Z,2.15
2023-03-16T08:09:41.491Z,2.23
2023-03-16T08:11:13.237Z,2.30
2023-03-16T08:12:45.023Z,2.44
2023-03-16T08:14:16.729Z,2.69
2023-03-16T08:15:48.610Z,2.44
2023-03-16T08:17:26.222Z,2.60
2023-03-16T08:18:57.886Z,2.42
2023-03-16T08:20:29.796Z,2.43
2023-03-16T08:22:02.280Z,2.67
2023-03-16T08:23:36.177Z,2.80
2023-03-16T08:25:12.935Z,2.70
2023-03-16T08:26:44.626Z,2.96
2023-03-16T08:28:17.039Z,2.92
2023-03-16T08:29:51.963Z,3.01
2023-03-16T08:31:25.435Z,2.86
2023-03-16T08:32:57.485Z,3.05
2023-03-16T08:34:33.672Z,3.04
2023-03-16T08:36:06.149Z,2.95
2023-03-16T08:37:40.025Z,2.97
2023-03-16T08:39:13.236Z,3.06
2023-03-16T08:40:48.932Z,3.16
2023-03-16T08:42:21.139Z,3.27
2023-03-16T08:43:52.870Z,3.17
2023-03-16T08:45:24.470Z,3.33
2023-03-16T08:46:56.177Z,3.45
2023-03-16T08:48:28.760Z,3.57
2023-03-16T08:50:01.147Z,3.71
2023-03-16T08:51:32.825Z,3.73
2023-03-16T08:53:06.032Z,3.86
2023-03-16T08:54:47.149Z,3.80
2023-03-16T08:56:24.566Z,3.76
2023-03-16T08:57:56.239Z,3.89
2023-03-16T08:59:30.855Z,3.98
2023-03-16T09:01:04.012Z,3.98
2023-03-16T09:02:38.503Z,4.18
2023-03-16T09:04:11.786Z,4.24
2023-03-16T09:05:43.475Z,3.85
2023-03-16T09:07:15.119Z,4.00
2023-03-16T09:08:47.821Z,4.38
2023-03-16T09:10:23.022Z,4.48
2023-03-16T09:11:54.626Z,4.22
2023-03-16T09:13:28.389Z,4.25
2023-03-16T09:15:00.528Z,4.63
2023-03-16T09:16:32.153Z,4.90
2023-03-16T09:18:04.124Z,5.14
2023-03-16T09:19:52.856Z,4.68
2023-03-16T09:21:26.605Z,4.43
2023-03-16T09:22:58.845Z,4.77
2023-03-16T09:24:30.542Z,4.72
2023-03-16T09:26:14.098Z,4.97
2023-03-16T09:27:45.749Z,5.10
2023-03-16T09:29:22.761Z,5.14
2023-03-16T09:30:57.303Z,5.06
2023-03-16T09:32:30.240Z,5.07
2023-03-16T09:37:35.314Z,5.28
2023-03-16T09:39:11.917Z,5.62
2023-03-16T09:40:44.559Z,5.48
2023-03-16T09:42:20.779Z,5.67
2023-03-16T09:43:58.336Z,5.96
2023-03-16T09:45:34.563Z,5.56
2023-03-16T09:47:06.414Z,5.88
2023-03-16T09:48:38.844Z,6.09
2023-03-16T09:50:16.520Z,6.02
2023-03-16T09:51:49.777Z,6.18
2023-03-16T09:53:24.948Z,6.08
2023-03-16T09:54:58.091Z,5.90
2023-03-16T09:56:35.542Z,6.08
2023-03-16T09:58:16.520Z,6.07
2023-03-16T09:59:48.345Z,6.00
2023-03-16T10:01:24.316Z,6.32
2023-03-16T10:03:13.437Z,6.14
2023-03-16T10:04:57.463Z,6.06
2023-03-16T10:06:29.534Z,6.07
2023-03-16T10:08:07.960Z,6.40
2023-03-16T10:09:43.581Z,6.16
2023-03-16T10:11:27.244Z,6.38
2023-03-16T10:13:00.108Z,6.29
2023-03-16T10:14:51.087Z,6.21
2023-03-16T10:16:24.730Z,6.76
2023-03-16T10:18:00.223Z,6.64
2023-03-16T10:19:40.168Z,6.80
2023-03-16T10:21:21.206Z,6.89
2023-03-16T10:22:55.438Z,6.79
2023-03-16T10:24:38.868Z,6.88
2023-03-16T10:26:13.686Z,6.84
2023-03-16T10:27:50.745Z,7.03
2023-03-16T10:29:37.875Z,7.09
2023-03-16T10:31:14.124Z,7.03
2023-03-16T10:32:45.956Z,7.32
2023-03-16T10:34:17.674Z,7.14
2023-03-16T10:35:51.383Z,7.12
2023-03-16T10:37:26.452Z,7.03
2023-03-16T10:39:00.124Z,6.74
2023-03-16T10:40:32.209Z,6.72
2023-03-16T10:42:10.769Z,6.80
2023-03-16T10:43:43.080Z,7.04
2023-03-16T10:45:33.551Z,7.53
2023-03-16T10:47:09.848Z,7.52
2023-03-16T10:48:42.369Z,7.31
2023-03-16T10:50:26.254Z,7.72
2023-03-16T10:51:59.656Z,7.83
2023-03-16T10:53:32.834Z,7.78
2023-03-16T10:55:08.755Z,7.86
2023-03-16T10:56:44.886Z,8.09
2023-03-16T10:58:26.959Z,7.88
2023-03-16T11:00:00.831Z,8.08
2023-03-16T11:01:33.789Z,7.88
2023-03-16T11:03:23.041Z,7.92
2023-03-16T11:04:56.168Z,8.10
2023-03-16T11:06:30.843Z,8.11
2023-03-16T11:08:11.881Z,8.07
2023-03-16T11:09:44.857Z,8.40
2023-03-16T11:11:17.931Z,8.54
2023-03-16T11:12:50.879Z,8.74
2023-03-16T11:14:35.601Z,8.87
2023-03-16T11:16:17.141Z,8.52
2023-03-16T11:17:53.079Z,8.71
2023-03-16T11:19:27.365Z,8.99
2023-03-16T11:21:00.691Z,8.92
2023-03-16T11:22:32.832Z,8.84
2023-03-16T11:24:04.886Z,8.99
2023-03-16T11:25:38.876Z,9.49
2023-03-16T11:27:15.520Z,9.38
2023-03-16T11:28:49.029Z,9.02
2023-03-16T11:30:24.193Z,9.55
2023-03-16T11:31:57.765Z,8.92
2023-03-16T11:33:31.168Z,8.96
2023-03-16T11:35:16.555Z,9.25
2023-03-16T11:36:50.774Z,9.65
2023-03-16T11:38:27.011Z,9.66
2023-03-16T11:40:05.407Z,9.84
2023-03-16T11:41:43.461Z,10.18
2023-03-16T11:43:27.524Z,9.68
2023-03-16T11:45:03.482Z,10.04
2023-03-16T11:46:36.861Z,10.12
2023-03-16T11:48:29.352Z,10.54
2023-03-16T11:50:01.670Z,10.59
2023-03-16T11:51:42.212Z,10.25
2023-03-16T11:53:18.590Z,10.20
2023-03-16T11:54:55.421Z,10.66
2023-03-16T11:56:31.197Z,11.00
2023-03-16T11:58:15.637Z,10.37
2023-03-16T12:00:01.443Z,10.47
2023-03-16T12:01:47.735Z,9.92
2023-03-16T12:03:55.162Z,9.98
2023-03-16T12:05:43.018Z,10.13
2023-03-16T12:07:26.471Z,10.53
2023-03-16T12:09:17.764Z,10.26
2023-03-16T12:10:50.779Z,10.59
2023-03-16T12:12:30.095Z,10.96
2023-03-16T12:14:11.395Z,10.26
2023-03-16T12:15:45.113Z,9.31
2023-03-16T12:17:18.042Z,10.47
2023-03-16T12:18:51.635Z,9.85
2023-03-16T12:20:24.772Z,9.62
2023-03-16T12:22:02.292Z,9.77
2023-03-16T12:23:36.827Z,9.49
2023-03-16T12:25:14.947Z,9.39
2023-03-16T12:26:49.526Z,9.75
2023-03-16T12:28:23.890Z,10.51
2023-03-16T12:29:59.926Z,11.53
2023-03-16T12:31:37.518Z,10.90
2023-03-16T12:33:12.857Z,10.27
2023-03-16T12:34:46.615Z,9.85
2023-03-16T12:36:52.282Z,9.79
2023-03-16T12:38:38.475Z,10.21
2023-03-16T12:40:18.635Z,9.61
2023-03-16T12:41:57.282Z,9.73
2023-03-16T12:43:36.159Z,10.25
2023-03-16T12:45:10.671Z,10.24
2023-03-16T12:46:48.043Z,10.04
2023-03-16T12:48:23.000Z,9.55
2023-03-16T12:49:57.028Z,10.65
2023-03-16T12:51:35.481Z,10.32
2023-03-16T12:53:07.154Z,11.19
2023-03-16T12:54:52.009Z,10.98
2023-03-16T12:56:28.339Z,9.68
2023-03-16T12:58:03.228Z,10.00
2023-03-16T12:59:39.071Z,9.87
2023-03-16T13:01:11.465Z,10.01
2023-03-16T13:02:44.511Z,10.39
2023-03-16T13:04:16.993Z,10.34
2023-03-16T13:05:51.163Z,9.57
2023-03-16T13:07:25.859Z,10.04
2023-03-16T13:09:11.757Z,10.12
2023-03-16T13:10:59.117Z,10.23
2023-03-16T13:12:32.920Z,10.89
2023-03-16T13:14:12.674Z,10.54
2023-03-16T13:15:47.560Z,10.12
2023-03-16T13:17:24.465Z,10.06
2023-03-16T13:18:56.585Z,10.80
2023-03-16T13:20:31.266Z,11.42
2023-03-16T13:22:06.497Z,11.36
2023-03-16T13:23:58.419Z,11.88
2023-03-16T13:25:39.133Z,11.75
2023-03-16T13:27:24.825Z,11.39
2023-03-16T13:28:57.125Z,12.00
2023-03-16T13:30:30.781Z,12.01
2023-03-16T13:32:04.810Z,12.02
2023-03-16T13:33:36.939Z,11.66
2023-03-16T13:35:12.126Z,12.44
2023-03-16T13:36:45.148Z,12.20
2023-03-16T13:38:17.569Z,12.22
2023-03-16T13:39:53.950Z,12.33
2023-03-16T13:41:25.789Z,12.15
2023-03-16T13:42:58.904Z,12.84
2023-03-16T13:44:31.359Z,12.50
2023-03-16T13:46:13.746Z,12.52
2023-03-16T13:47:46.038Z,11.91
2023-03-16T13:49:18.451Z,12.33
2023-03-16T13:50:53.453Z,12.31
2023-03-16T13:52:26.796Z,12.81
2023-03-16T13:53:58.815Z,12.94
2023-03-16T13:55:31.704Z,12.55
2023-03-16T13:57:03.704Z,12.25
2023-03-16T13:58:37.838Z,12.95
2023-03-16T14:00:18.787Z,12.93
2023-03-16T14:01:57.922Z,12.55
2023-03-16T14:03:32.813Z,12.49
2023-03-16T14:05:10.224Z,13.35
2023-03-16T14:06:51.871Z,13.54
2023-03-16T14:08:23.615Z,12.76
2023-03-16T14:09:59.060Z,12.81
2023-03-16T14:11:30.742Z,12.74
2023-03-16T14:13:10.182Z,13.75
2023-03-16T14:14:46.212Z,13.40
2023-03-16T14:16:18.552Z,12.52
2023-03-16T14:17:51.052Z,12.61
2023-03-16T14:19:24.536Z,12.33
2023-03-16T14:20:56.239Z,12.71
2023-03-16T14:22:29.493Z,12.77
2023-03-16T14:24:02.209Z,13.26
2023-03-16T14:25:37.569Z,13.22
2023-03-16T14:27:14.479Z,12.98
2023-03-16T14:28:54.265Z,12.02
2023-03-16T14:30:28.379Z,12.75
2023-03-16T14:32:02.340Z,13.69
2023-03-16T14:33:37.921Z,13.85
2023-03-16T14:35:13.942Z,12.83
2023-03-16T14:36:48.134Z,12.61
2023-03-16T14:38:22.176Z,13.01
2023-03-16T14:39:58.244Z,12.33
2023-03-16T14:41:33.323Z,13.20
2023-03-16T14:43:04.966Z,12.79
2023-03-16T14:44:37.406Z,13.14
2023-03-16T14:46:19.711Z,13.27
2023-03-16T14:47:52.486Z,13.30
2023-03-16T14:49:28.252Z,13.69
2023-03-16T14:51:01.041Z,13.12
2023-03-16T14:52:32.810Z,13.60
2023-03-16T14:54:10.653Z,14.11
2023-03-16T14:55:43.222Z,13.35
2023-03-16T14:57:16.772Z,13.00
2023-03-16T14:58:48.502Z,13.11
2023-03-16T15:00:21.616Z,12.93
2023-03-16T15:01:55.346Z,13.37
2023-03-16T15:03:33.010Z,13.39
2023-03-16T15:05:05.433Z,13.50
2023-03-16T15:06:37.127Z,13.82
2023-03-16T15:08:14.820Z,13.31
2023-03-16T15:09:46.589Z,12.91
2023-03-16T15:11:21.525Z,13.20
2023-03-16T15:13:04.245Z,13.16
2023-03-16T15:14:54.925Z,12.97
2023-03-16T15:16:26.659Z,12.52
2023-03-16T15:18:00.150Z,13.06
2023-03-16T15:19:32.292Z,13.20
2023-03-16T15:21:06.608Z,12.74
2023-03-16T15:22:38.550Z,12.61
2023-03-16T15:24:12.190Z,12.97
2023-03-16T15:25:44.819Z,12.45
2023-03-16T15:27:19.783Z,12.82
2023-03-16T15:28:51.716Z,12.43
2023-03-16T15:30:24.441Z,12.14
2023-03-16T15:31:56.123Z,11.73
2023-03-16T15:33:29.300Z,11.70
2023-03-16T15:35:01.042Z,11.68
2023-03-16T15:36:32.812Z,12.03
2023-03-16T15:38:07.046Z,11.24
2023-03-16T15:39:38.671Z,11.62
2023-03-16T15:41:10.699Z,11.29
2023-03-16T15:42:44.088Z,11.27
2023-03-16T15:44:17.246Z,11.09
2023-03-16T15:45:49.084Z,10.85
2023-03-16T15:47:22.020Z,10.81
2023-03-16T15:48:59.560Z,11.25
2023-03-16T15:50:33.724Z,11.28
2023-03-16T15:52:13.932Z,11.33
2023-03-16T15:53:50.021Z,11.18
2023-03-16T15:55:23.647Z,11.31
2023-03-16T15:56:56.058Z,11.10
2023-03-16T15:58:33.778Z,11.12
2023-03-16T16:00:20.618Z,11.17
2023-03-16T16:01:55.414Z,11.08
2023-03-16T16:03:27.480Z,11.23
2023-03-16T16:05:03.429Z,11.35
2023-03-16T16:06:35.154Z,11.36
2023-03-16T16:08:07.011Z,11.10
2023-03-16T16:09:56.468Z,11.04
2023-03-16T16:11:28.261Z,11.02
2023-03-16T16:13:00.128Z,10.99
2023-03-16T16:14:35.382Z,10.75
2023-03-16T16:16:13.934Z,10.89
2023-03-16T16:18:06.115Z,10.66
2023-03-16T16:19:39.667Z,10.64
2023-03-16T16:21:16.271Z,10.69
2023-03-16T16:22:48.111Z,10.55
2023-03-16T16:24:21.895Z,10.46
2023-03-16T16:25:54.210Z,10.44
2023-03-16T16:27:26.185Z,10.39
2023-03-16T16:29:00.851Z,10.37
2023-03-16T16:30:35.593Z,10.33
2023-03-16T16:32:25.821Z,10.23
2023-03-16T16:33:59.028Z,10.40
2023-03-16T16:35:31.492Z,10.40
2023-03-16T16:37:04.997Z,10.37
2023-03-16T16:38:36.809Z,10.26
2023-03-16T16:40:17.324Z,10.33
2023-03-16T16:41:49.238Z,10.28
2023-03-16T16:43:29.953Z,10.26
2023-03-16T16:45:02.068Z,10.18
2023-03-16T16:46:42.209Z,10.13
2023-03-16T16:48:24.953Z,10.10
2023-03-16T16:49:56.845Z,10.11
2023-03-16T16:51:29.863Z,10.08
2023-03-16T16:53:09.224Z,10.08
2023-03-16T16:54:43.521Z,9.89
2023-03-16T16:56:17.416Z,9.77
2023-03-16T16:57:49.529Z,9.73
2023-03-16T16:59:22.841Z,9.78
2023-03-16T17:00:55.786Z,9.80
2023-03-16T17:02:29.520Z,9.82
2023-03-16T17:04:04.669Z,9.72
2023-03-16T17:05:36.800Z,9.75
2023-03-16T17:07:09.455Z,9.45
2023-03-16T17:08:43.290Z,9.52
2023-03-16T17:10:16.850Z,9.44
2023-03-16T17:11:48.514Z,9.40
2023-03-16T17:13:26.809Z,9.28
2023-03-16T17:14:58.600Z,9.10
2023-03-16T17:16:34.709Z,9.06
2023-03-16T17:18:10.402Z,9.05
2023-03-16T17:19:46.558Z,9.02
2023-03-16T17:21:19.943Z,8.92
2023-03-16T17:22:52.704Z,9.00
2023-03-16T17:24:25.984Z,8.92
2023-03-16T17:25:58.491Z,8.77
2023-03-16T17:27:31.442Z,8.51
2023-03-16T17:29:06.202Z,8.55
2023-03-16T17:30:38.346Z,8.57
2023-03-16T17:32:16.788Z,8.72
2023-03-16T17:33:48.525Z,8.82
2023-03-16T17:35:20.414Z,8.68
2023-03-16T17:36:52.634Z,8.61
2023-03-16T17:38:25.044Z,8.60
2023-03-16T17:39:58.252Z,8.48
2023-03-16T17:41:33.060Z,8.54
2023-03-16T17:43:06.214Z,8.48
2023-03-16T17:44:40.359Z,8.33
2023-03-16T17:46:12.486Z,8.39
2023-03-16T17:47:44.234Z,8.43
2023-03-16T17:49:20.048Z,8.33
2023-03-16T17:50:52.122Z,8.32
2023-03-16T17:52:25.737Z,8.12
2023-03-16T17:53:57.934Z,8.22
2023-03-16T17:55:32.294Z,8.26
2023-03-16T17:57:04.363Z,8.03
2023-03-16T17:58:36.143Z,8.07
2023-03-16T18:00:18.562Z,8.15
2023-03-16T18:01:50.225Z,8.12
2023-03-16T18:03:22.474Z,7.97
2023-03-16T18:04:54.280Z,7.72
2023-03-16T18:06:26.500Z,7.85
2023-03-16T18:07:59.332Z,7.71
2023-03-16T18:09:36.321Z,7.70
2023-03-16T18:11:12.207Z,7.41
2023-03-16T18:12:44.168Z,7.65
2023-03-16T18:14:21.694Z,7.70
2023-03-16T18:15:53.904Z,7.70
2023-03-16T18:17:27.984Z,7.71
2023-03-16T18:19:02.459Z,7.57
2023-03-16T18:20:36.681Z,7.53
2023-03-16T18:22:12.359Z,7.46
2023-03-16T18:23:46.862Z,7.43
2023-03-16T18:25:28.345Z,7.35
2023-03-16T18:27:01.549Z,7.40
2023-03-16T18:28:33.687Z,7.34
2023-03-16T18:30:06.577Z,7.40
2023-03-16T18:31:38.365Z,7.38
2023-03-16T18:33:23.590Z,7.38
2023-03-16T18:34:55.587Z,7.28
2023-03-16T18:36:28.969Z,7.05
2023-03-16T18:38:00.925Z,7.29
2023-03-16T18:39:32.699Z,7.38
2023-03-16T18:41:15.833Z,7.35
2023-03-16T18:42:49.011Z,7.32
2023-03-16T18:44:21.659Z,7.26
2023-03-16T18:45:54.879Z,7.26
2023-03-16T18:47:31.495Z,7.20
2023-03-16T18:49:04.277Z,7.15
2023-03-16T18:50:36.288Z,7.13
2023-03-16T18:52:12.693Z,7.12
2023-03-16T18:53:44.442Z,7.00
2023-03-16T18:55:18.453Z,6.86
2023-03-16T18:56:50.164Z,6.86
2023-03-16T18:58:23.963Z,6.93
2023-03-16T18:59:55.736Z,6.88
2023-03-16T19:01:28.511Z,6.81
2023-03-16T19:03:03.053Z,6.56
2023-03-16T19:04:35.017Z,6.59
2023-03-16T19:06:07.522Z,6.53
2023-03-16T19:07:41.121Z,6.58
2023-03-16T19:09:14.016Z,6.60
2023-03-16T19:10:48.159Z,6.50
2023-03-16T19:12:20.597Z,6.53
2023-03-16T19:13:54.725Z,6.54
2023-03-16T19:15:27.795Z,6.53
2023-03-16T19:17:02.926Z,6.45
2023-03-16T19:18:43.595Z,6.17
2023-03-16T19:20:16.609Z,6.31
2023-03-16T19:21:48.707Z,6.33
2023-03-16T19:23:23.587Z,6.28
2023-03-16T19:24:55.853Z,6.22
2023-03-16T19:26:30.628Z,6.31
2023-03-16T19:28:04.237Z,6.32
2023-03-16T19:29:40.704Z,6.17
2023-03-16T19:31:16.554Z,6.09
2023-03-16T19:32:48.295Z,6.21
2023-03-16T19:34:19.982Z,6.21
2023-03-16T19:35:55.137Z,6.15
2023-03-16T19:37:30.005Z,6.02
2023-03-16T19:39:01.958Z,5.88
2023-03-16T19:40:34.169Z,5.89
2023-03-16T19:42:06.275Z,5.84
2023-03-16T19:43:37.949Z,5.86
2023-03-16T19:45:18.216Z,5.81
2023-03-16T19:46:49.803Z,5.85
2023-03-16T19:48:31.185Z,5.83
2023-03-16T19:50:05.655Z,5.80
2023-03-16T19:51:37.314Z,5.80
2023-03-16T19:53:14.873Z,5.79
2023-03-16T19:54:46.516Z,5.75
2023-03-16T19:56:19.194Z,5.73
2023-03-16T19:57:55.153Z,5.67
2023-03-16T19:59:28.822Z,5.62
2023-03-16T20:01:02.112Z,5.50
2023-03-16T20:02:36.301Z,5.17
2023-03-16T20:04:14.300Z,5.34
2023-03-16T20:05:45.972Z,5.29
2023-03-16T20:07:17.764Z,5.26
2023-03-16T20:08:49.858Z,5.21
2023-03-16T20:10:22.522Z,5.26
2023-03-16T20:11:54.575Z,5.32
2023-03-16T20:13:26.314Z,5.36
2023-03-16T20:14:59.513Z,5.36
2023-03-16T20:16:33.565Z,5.38
2023-03-16T20:18:06.720Z,4.97
2023-03-16T20:19:39.599Z,5.20
2023-03-16T20:21:14.890Z,5.20
2023-03-16T20:22:46.586Z,5.20
2023-03-16T20:24:19.213Z,5.30
2023-03-16T20:25:52.125Z,5.20
2023-03-16T20:27:28.061Z,5.19
2023-03-16T20:29:06.154Z,5.27
2023-03-16T20:30:37.840Z,5.20
2023-03-16T20:32:16.731Z,5.23
2023-03-16T20:33:48.760Z,5.28
2023-03-16T20:35:22.875Z,5.26
2023-03-16T20:36:54.578Z,5.16
2023-03-16T20:38:26.394Z,5.03
2023-03-16T20:39:58.975Z,5.09
2023-03-16T20:41:32.631Z,5.04
2023-03-16T20:43:06.004Z,4.90
2023-03-16T20:44:38.542Z,4.97
2023-03-16T20:46:15.131Z,5.03
2023-03-16T20:47:48.932Z,4.94
2023-03-16T20:49:29.721Z,4.90